createdAt,value
2019-02-20T00:00:00.576Z,7.57
2019-02-20T00:02:04.715Z,5.27
2019-02-20T00:04:09.179Z,5.50
2019-02-20T00:06:13.229Z,5.87
2019-02-20T00:08:17.627Z,8.67
2019-02-20T00:10:21.639Z,6.80
2019-02-20T00:12:26.119Z,10.70
2019-02-20T00:14:29.988Z,7.97
2019-02-20T00:16:34.759Z,9.70
2019-02-20T00:18:40.050Z,8.30
2019-02-20T00:20:44.195Z,5.90
2019-02-20T00:22:48.880Z,7.00
2019-02-20T00:24:54.210Z,5.23
2019-02-20T00:26:58.693Z,6.90
2019-02-20T00:29:02.687Z,5.17
2019-02-20T00:31:06.703Z,5.20
2019-02-20T00:33:10.870Z,6.50
2019-02-20T00:35:15.219Z,7.80
2019-02-20T00:37:19.683Z,6.27
2019-02-20T00:39:23.819Z,7.17
2019-02-20T00:41:27.702Z,5.60
2019-02-20T00:43:32.523Z,6.77
2019-02-20T00:45:59.011Z,6.37
2019-02-20T00:48:22.571Z,7.60
2019-02-20T00:50:28.047Z,9.40
2019-02-20T00:52:50.143Z,6.57
2019-02-20T00:54:54.380Z,6.40
2019-02-20T00:56:59.295Z,8.70
2019-02-20T00:59:03.300Z,7.23
2019-02-20T01:01:07.226Z,6.03
2019-02-20T01:03:11.656Z,8.93
2019-02-20T01:05:16.216Z,9.30
2019-02-20T01:07:20.883Z,6.40
2019-02-20T01:09:24.980Z,6.57
2019-02-20T01:11:29.504Z,6.20
2019-02-20T01:13:33.692Z,6.40
2019-02-20T01:15:38.248Z,8.60
2019-02-20T01:17:42.190Z,7.70
2019-02-20T01:19:46.783Z,7.10
2019-02-20T01:21:50.608Z,6.57
2019-02-20T01:23:55.195Z,6.27
2019-02-20T01:25:59.633Z,6.50
2019-02-20T01:28:04.070Z,4.93
2019-02-20T01:30:09.235Z,4.37
2019-02-20T01:32:13.333Z,9.20
2019-02-20T01:34:17.374Z,4.40
2019-02-20T01:36:21.788Z,6.63
2019-02-20T01:38:26.210Z,6.17
2019-02-20T01:40:30.881Z,4.67
2019-02-20T01:42:35.383Z,5.37
2019-02-20T01:44:39.456Z,5.67
2019-02-20T01:46:43.723Z,4.03
2019-02-20T01:48:48.134Z,5.30
2019-02-20T01:50:52.727Z,3.70
2019-02-20T01:52:57.126Z,6.37
2019-02-20T01:55:01.799Z,5.50
2019-02-20T01:57:05.760Z,4.60
2019-02-20T01:59:10.309Z,5.10
2019-02-20T02:01:15.327Z,3.10
2019-02-20T02:03:19.455Z,5.30
2019-02-20T02:05:24.631Z,4.77
2019-02-20T02:07:29.531Z,6.70
2019-02-20T02:09:33.930Z,6.60
2019-02-20T02:11:38.743Z,5.00
2019-02-20T02:13:42.868Z,3.50
2019-02-20T02:15:47.310Z,3.87
2019-02-20T02:17:51.519Z,5.73
2019-02-20T02:19:55.598Z,4.70
2019-02-20T02:21:59.996Z,4.50
2019-02-20T02:24:03.987Z,4.43
2019-02-20T02:26:10.846Z,5.00
2019-02-20T02:28:14.250Z,4.67
2019-02-20T02:30:19.100Z,4.60
2019-02-20T02:32:23.226Z,4.47
2019-02-20T02:34:27.776Z,5.50
2019-02-20T02:36:35.542Z,4.07
2019-02-20T02:38:40.174Z,2.83
2019-02-20T02:40:44.541Z,4.60
2019-02-20T02:42:48.898Z,4.97
2019-02-20T02:44:52.878Z,5.47
2019-02-20T02:46:57.344Z,4.67
2019-02-20T02:49:01.205Z,4.20
2019-02-20T02:51:08.045Z,6.30
2019-02-20T02:53:12.482Z,4.60
2019-02-20T02:55:17.002Z,4.57
2019-02-20T02:57:21.473Z,2.90
2019-02-20T02:59:25.368Z,6.80
2019-02-20T03:01:30.803Z,7.37
2019-02-20T03:03:34.978Z,5.60
2019-02-20T03:05:39.416Z,5.40
2019-02-20T03:07:43.647Z,6.23
2019-02-20T03:09:47.767Z,7.00
2019-02-20T03:11:51.905Z,5.33
2019-02-20T03:13:56.402Z,5.40
2019-02-20T03:16:01.360Z,4.50
2019-02-20T03:18:05.802Z,4.63
2019-02-20T03:20:10.140Z,6.27
2019-02-20T03:22:14.215Z,6.27
2019-02-20T03:24:19.134Z,6.10
2019-02-20T03:26:23.715Z,6.83
2019-02-20T03:28:28.678Z,5.83
2019-02-20T03:30:33.763Z,7.00
2019-02-20T03:32:37.892Z,4.93
2019-02-20T03:34:42.318Z,5.77
2019-02-20T03:36:46.751Z,8.83
2019-02-20T03:38:50.574Z,4.17
2019-02-20T03:40:54.764Z,6.67
2019-02-20T03:42:59.187Z,7.63
2019-02-20T03:45:03.173Z,7.73
2019-02-20T03:47:07.079Z,6.87
2019-02-20T03:49:11.055Z,7.17
2019-02-20T03:51:15.494Z,7.10
2019-02-20T03:53:19.751Z,8.00
2019-02-20T03:55:24.251Z,9.93
2019-02-20T03:57:28.871Z,9.60
2019-02-20T03:59:32.986Z,8.40
2019-02-20T04:01:37.430Z,10.50
2019-02-20T04:03:41.276Z,11.63
2019-02-20T04:05:45.669Z,13.20
2019-02-20T04:07:49.855Z,8.50
2019-02-20T04:09:53.715Z,11.63
2019-02-20T04:11:57.564Z,7.10
2019-02-20T04:14:01.427Z,11.43
2019-02-20T04:16:06.549Z,11.40
2019-02-20T04:18:11.187Z,8.47
2019-02-20T04:20:15.055Z,10.43
2019-02-20T04:22:19.512Z,11.47
2019-02-20T04:24:23.655Z,8.63
2019-02-20T04:26:27.534Z,10.33
2019-02-20T04:28:32.563Z,9.43
2019-02-20T04:30:36.480Z,14.40
2019-02-20T04:32:40.409Z,12.67
2019-02-20T04:34:44.566Z,14.10
2019-02-20T04:36:48.442Z,8.07
2019-02-20T04:38:53.176Z,10.83
2019-02-20T04:40:57.553Z,12.97
2019-02-20T04:43:01.728Z,11.50
2019-02-20T04:45:06.621Z,12.90
2019-02-20T04:47:11.364Z,8.10
2019-02-20T04:49:15.477Z,8.97
2019-02-20T04:51:19.919Z,12.90
2019-02-20T04:53:24.123Z,9.60
2019-02-20T04:55:28.601Z,11.67
2019-02-20T04:57:33.153Z,14.30
2019-02-20T04:59:37.787Z,10.57
2019-02-20T05:01:41.715Z,10.70
2019-02-20T05:03:45.655Z,5.70
2019-02-20T05:05:49.627Z,10.90
2019-02-20T05:08:13.552Z,8.80
2019-02-20T05:10:17.396Z,12.43
2019-02-20T05:12:21.637Z,8.33
2019-02-20T05:14:25.593Z,10.73
2019-02-20T05:16:30.293Z,8.33
2019-02-20T05:18:35.255Z,8.33
2019-02-20T05:20:39.401Z,11.60
2019-02-20T05:22:43.553Z,9.57
2019-02-20T05:24:47.770Z,7.97
2019-02-20T05:26:52.206Z,11.40
2019-02-20T05:28:56.880Z,8.57
2019-02-20T05:31:01.528Z,9.60
2019-02-20T05:33:06.244Z,9.20
2019-02-20T05:35:10.679Z,10.23
2019-02-20T05:37:15.364Z,10.70
2019-02-20T05:39:19.565Z,12.23
2019-02-20T05:41:24.164Z,7.97
2019-02-20T05:43:28.082Z,12.37
2019-02-20T05:45:31.973Z,11.07
2019-02-20T05:47:36.388Z,11.43
2019-02-20T05:49:40.233Z,8.60
2019-02-20T05:51:44.707Z,12.10
2019-02-20T05:53:48.660Z,7.83
2019-02-20T05:55:53.089Z,11.70
2019-02-20T05:57:57.216Z,10.37
2019-02-20T06:00:01.693Z,12.30
2019-02-20T06:02:05.537Z,8.20
2019-02-20T06:04:09.972Z,11.53
2019-02-20T06:06:14.373Z,10.50
2019-02-20T06:08:18.811Z,6.80
2019-02-20T06:10:23.143Z,11.63
2019-02-20T06:12:27.535Z,12.07
2019-02-20T06:14:31.943Z,7.57
2019-02-20T06:16:36.124Z,12.33
2019-02-20T06:18:40.686Z,8.37
2019-02-20T06:20:45.107Z,12.87
2019-02-20T06:22:50.028Z,13.07
2019-02-20T06:24:54.967Z,11.03
2019-02-20T06:26:59.375Z,10.67
2019-02-20T06:29:03.678Z,8.23
2019-02-20T06:31:08.783Z,7.93
2019-02-20T06:33:13.211Z,10.97
2019-02-20T06:35:17.616Z,7.43
2019-02-20T06:37:21.481Z,11.73
2019-02-20T06:39:25.332Z,11.77
2019-02-20T06:41:38.557Z,15.40
2019-02-20T06:43:35.835Z,8.63
2019-02-20T06:45:40.039Z,15.43
2019-02-20T06:47:44.155Z,7.50
2019-02-20T06:49:48.287Z,11.70
2019-02-20T06:51:52.984Z,10.10
2019-02-20T06:53:58.177Z,10.53
2019-02-20T06:56:02.203Z,13.60
2019-02-20T06:58:06.835Z,10.93
2019-02-20T07:00:12.007Z,8.77
2019-02-20T07:02:16.435Z,10.30
2019-02-20T07:04:20.288Z,13.13
2019-02-20T07:06:32.968Z,11.47
2019-02-20T07:09:15.172Z,14.77
2019-02-20T07:11:47.471Z,8.67
2019-02-20T07:14:04.275Z,13.90
2019-02-20T07:16:49.663Z,13.00
2019-02-20T07:19:20.809Z,15.83
2019-02-20T07:21:51.740Z,13.73
2019-02-20T07:24:31.628Z,14.27
2019-02-20T07:27:17.126Z,11.37
2019-02-20T07:29:44.142Z,10.00
2019-02-20T07:31:48.658Z,12.57
2019-02-20T07:33:52.827Z,15.47
2019-02-20T07:35:57.307Z,13.23
2019-02-20T07:38:01.443Z,11.10
2019-02-20T07:40:08.212Z,8.90
2019-02-20T07:42:19.272Z,13.20
2019-02-20T07:44:24.000Z,15.43
2019-02-20T07:46:31.768Z,16.10
2019-02-20T07:48:35.655Z,8.73
2019-02-20T07:52:46.320Z,10.73
2019-02-20T07:54:50.692Z,7.87
2019-02-20T07:56:54.831Z,14.13
2019-02-20T07:58:59.034Z,13.97
2019-02-20T08:01:03.654Z,15.93
2019-02-20T08:03:08.463Z,14.00
2019-02-20T08:05:12.908Z,12.57
2019-02-20T08:07:17.839Z,13.80
2019-02-20T08:09:22.470Z,12.97
2019-02-20T08:11:27.447Z,9.70
2019-02-20T08:13:39.040Z,8.40
2019-02-20T08:15:37.911Z,7.00
2019-02-20T08:17:42.068Z,13.17
2019-02-20T08:19:46.199Z,18.60
2019-02-20T08:21:50.589Z,13.83
2019-02-20T08:23:55.412Z,10.03
2019-02-20T08:25:59.921Z,7.80
2019-02-20T08:28:04.365Z,8.50
2019-02-20T08:30:11.610Z,8.43
2019-02-20T08:32:16.683Z,14.37
2019-02-20T08:34:20.848Z,12.23
2019-02-20T08:36:25.211Z,13.53
2019-02-20T08:38:29.763Z,9.57
2019-02-20T08:40:34.847Z,15.77
2019-02-20T08:42:40.567Z,15.97
2019-02-20T08:44:44.706Z,17.10
2019-02-20T08:46:49.311Z,11.97
2019-02-20T08:48:53.203Z,11.77
2019-02-20T08:50:57.872Z,10.47
2019-02-20T08:53:01.988Z,10.40
2019-02-20T08:55:07.411Z,11.23
2019-02-20T08:57:11.993Z,12.20
2019-02-20T08:59:15.839Z,15.10
2019-02-20T09:01:20.294Z,12.33
2019-02-20T09:03:24.688Z,14.40
2019-02-20T09:05:28.666Z,9.63
2019-02-20T09:07:33.760Z,11.30
2019-02-20T09:09:38.017Z,14.40
2019-02-20T09:11:42.696Z,14.37
2019-02-20T09:13:47.441Z,9.23
2019-02-20T09:15:52.057Z,14.33
2019-02-20T09:17:56.508Z,10.70
2019-02-20T09:20:01.156Z,7.37
2019-02-20T09:22:05.228Z,13.10
2019-02-20T09:24:09.065Z,16.00
2019-02-20T09:26:12.976Z,10.73
2019-02-20T09:28:17.435Z,9.00
2019-02-20T09:30:28.365Z,16.30
2019-02-20T09:32:27.863Z,10.93
2019-02-20T09:34:32.428Z,13.20
2019-02-20T09:36:37.233Z,12.30
2019-02-20T09:38:41.696Z,15.10
2019-02-20T09:40:46.646Z,11.70
2019-02-20T09:42:51.564Z,15.60
2019-02-20T09:44:56.357Z,11.47
2019-02-20T09:47:00.730Z,16.50
2019-02-20T09:49:05.014Z,10.87
2019-02-20T09:51:09.108Z,8.80
2019-02-20T09:53:13.697Z,15.07
2019-02-20T09:55:18.225Z,16.80
2019-02-20T09:57:22.599Z,13.63
2019-02-20T09:59:26.545Z,9.87
2019-02-20T10:01:32.165Z,11.87
2019-02-20T10:03:39.389Z,14.73
2019-02-20T10:05:44.215Z,13.27
2019-02-20T10:07:49.075Z,15.13
2019-02-20T10:09:53.775Z,12.23
2019-02-20T10:11:58.239Z,10.13
2019-02-20T10:14:03.884Z,10.83
2019-02-20T10:16:07.882Z,12.10
2019-02-20T10:18:12.315Z,13.40
2019-02-20T10:20:16.900Z,15.10
2019-02-20T10:22:22.102Z,11.40
2019-02-20T10:24:26.059Z,12.93
2019-02-20T10:26:30.541Z,14.57
2019-02-20T10:28:34.511Z,13.30
2019-02-20T10:30:38.696Z,15.37
2019-02-20T10:32:43.811Z,16.00
2019-02-20T10:34:47.987Z,11.37
2019-02-20T10:36:51.823Z,9.57
2019-02-20T10:38:55.780Z,16.33
2019-02-20T10:41:00.202Z,17.03
2019-02-20T10:43:04.467Z,13.33
2019-02-20T10:45:09.436Z,14.57
2019-02-20T10:47:13.834Z,13.77
2019-02-20T10:49:17.984Z,12.80
2019-02-20T10:51:21.942Z,15.20
2019-02-20T10:53:26.083Z,17.77
2019-02-20T10:55:30.598Z,11.77
2019-02-20T10:57:35.419Z,11.27
2019-02-20T10:59:40.308Z,15.57
2019-02-20T11:01:45.097Z,17.37
2019-02-20T11:03:49.611Z,13.50
2019-02-20T11:05:54.496Z,14.33
2019-02-20T11:07:58.643Z,12.30
2019-02-20T11:10:02.593Z,15.67
2019-02-20T11:12:06.463Z,9.90
2019-02-20T11:14:10.783Z,17.30
2019-02-20T11:16:14.704Z,9.70
2019-02-20T11:18:18.606Z,12.07
2019-02-20T11:20:22.502Z,13.67
2019-02-20T11:22:27.928Z,10.90
2019-02-20T11:24:32.995Z,15.90
2019-02-20T11:26:50.314Z,16.23
2019-02-20T11:28:43.426Z,10.33
2019-02-20T11:30:48.260Z,13.43
2019-02-20T11:32:52.362Z,12.97
2019-02-20T11:34:56.915Z,16.10
2019-02-20T11:37:01.555Z,14.47
2019-02-20T11:39:06.452Z,8.20
2019-02-20T11:41:13.424Z,11.07
2019-02-20T11:43:17.709Z,11.03
2019-02-20T11:45:21.711Z,11.60
2019-02-20T11:47:26.543Z,16.37
2019-02-20T11:49:31.473Z,11.07
2019-02-20T11:51:35.910Z,17.67
2019-02-20T11:53:40.291Z,17.30
2019-02-20T11:55:45.451Z,12.50
2019-02-20T11:57:49.461Z,14.40
2019-02-20T11:59:54.119Z,13.13
2019-02-20T12:01:58.807Z,11.23
2019-02-20T12:04:03.835Z,15.50
2019-02-20T12:06:08.457Z,10.03
2019-02-20T12:08:13.184Z,9.83
2019-02-20T12:10:18.864Z,8.03
2019-02-20T12:12:22.864Z,10.97
2019-02-20T12:14:27.079Z,8.70
2019-02-20T12:16:31.943Z,17.77
2019-02-20T12:18:36.562Z,12.93
2019-02-20T12:20:41.404Z,13.03
2019-02-20T12:22:45.285Z,17.27
2019-02-20T12:24:49.503Z,16.00
2019-02-20T12:26:53.956Z,10.80
2019-02-20T12:28:58.188Z,14.87
2019-02-20T12:31:02.107Z,15.77
2019-02-20T12:33:06.717Z,13.07
2019-02-20T12:35:11.255Z,14.17
2019-02-20T12:37:15.858Z,15.77
2019-02-20T12:39:20.074Z,10.43
2019-02-20T12:41:24.152Z,14.40
2019-02-20T12:43:28.510Z,13.07
2019-02-20T12:45:33.109Z,12.20
2019-02-20T12:47:37.091Z,20.60
2019-02-20T12:49:41.211Z,14.37
2019-02-20T12:51:45.307Z,19.73
2019-02-20T12:53:49.760Z,17.87
2019-02-20T12:55:53.631Z,15.27
2019-02-20T12:57:57.554Z,17.17
2019-02-20T13:00:01.839Z,13.87
2019-02-20T13:02:06.215Z,19.50
2019-02-20T13:04:11.591Z,18.77
2019-02-20T13:06:15.887Z,13.70
2019-02-20T13:08:21.667Z,17.70
2019-02-20T13:10:25.711Z,21.00
2019-02-20T13:12:30.513Z,16.67
2019-02-20T13:14:34.635Z,16.27
2019-02-20T13:16:38.741Z,20.10
2019-02-20T13:18:43.456Z,23.00
2019-02-20T13:20:47.944Z,19.87
2019-02-20T13:22:51.980Z,16.83
2019-02-20T13:24:56.394Z,15.03
2019-02-20T13:27:07.389Z,21.17
2019-02-20T13:29:06.893Z,17.93
2019-02-20T13:31:11.028Z,19.00
2019-02-20T13:33:15.401Z,21.03
2019-02-20T13:35:19.541Z,21.17
2019-02-20T13:37:23.443Z,23.77
2019-02-20T13:39:28.043Z,22.47
2019-02-20T13:41:33.914Z,19.33
2019-02-20T13:43:37.995Z,13.50
2019-02-20T13:45:42.067Z,14.43
2019-02-20T13:47:46.541Z,17.97
2019-02-20T13:49:50.738Z,22.77
2019-02-20T13:51:55.756Z,18.10
2019-02-20T13:53:59.663Z,14.97
2019-02-20T13:56:03.601Z,18.10
2019-02-20T13:58:07.906Z,20.50
2019-02-20T14:00:13.310Z,19.30
2019-02-20T14:02:17.887Z,16.80
2019-02-20T14:04:23.096Z,16.77
2019-02-20T14:06:27.139Z,16.07
2019-02-20T14:08:31.188Z,18.50
2019-02-20T14:10:35.817Z,14.57
2019-02-20T14:12:40.591Z,18.07
2019-02-20T14:14:45.546Z,11.10
2019-02-20T14:16:50.819Z,16.47
2019-02-20T14:18:56.374Z,17.87
2019-02-20T14:21:00.287Z,16.63
2019-02-20T14:23:06.771Z,8.57
2019-02-20T14:25:11.880Z,16.53
2019-02-20T14:27:17.273Z,11.37
2019-02-20T14:29:21.759Z,14.40
2019-02-20T14:31:26.344Z,11.57
2019-02-20T14:33:30.779Z,14.33
2019-02-20T14:35:34.623Z,13.13
2019-02-20T14:37:39.405Z,13.07
2019-02-20T14:39:43.723Z,15.60
2019-02-20T14:41:47.949Z,12.70
2019-02-20T14:43:52.147Z,12.97
2019-02-20T14:45:56.099Z,16.47
2019-02-20T14:48:00.543Z,8.20
2019-02-20T14:50:05.428Z,16.90
2019-02-20T14:52:09.604Z,15.57
2019-02-20T14:54:13.628Z,13.17
2019-02-20T14:56:17.518Z,14.43
2019-02-20T14:58:22.965Z,17.20
2019-02-20T15:00:26.983Z,16.90
2019-02-20T15:02:31.286Z,11.27
2019-02-20T15:04:36.266Z,16.43
2019-02-20T15:06:40.485Z,13.53
2019-02-20T15:08:45.523Z,17.00
2019-02-20T15:10:50.031Z,11.30
2019-02-20T15:12:54.859Z,15.33
2019-02-20T15:14:59.147Z,19.13
2019-02-20T15:17:03.551Z,11.57
2019-02-20T15:19:08.139Z,16.33
2019-02-20T15:21:12.505Z,14.83
2019-02-20T15:23:16.800Z,16.70
2019-02-20T15:25:20.997Z,18.40
2019-02-20T15:27:28.735Z,10.13
2019-02-20T15:29:32.069Z,11.57
2019-02-20T15:31:36.078Z,17.63
2019-02-20T15:33:40.899Z,16.70
2019-02-20T15:35:45.045Z,15.10
2019-02-20T15:37:49.570Z,14.80
2019-02-20T15:39:54.923Z,9.17
2019-02-20T15:41:59.977Z,15.87
2019-02-20T15:44:04.862Z,10.00
2019-02-20T15:46:10.048Z,11.27
2019-02-20T15:48:22.897Z,14.00
2019-02-20T15:50:20.923Z,12.40
2019-02-20T15:52:24.887Z,13.33
2019-02-20T15:54:29.326Z,14.50
2019-02-20T15:56:34.158Z,15.20
2019-02-20T15:58:38.363Z,13.70
2019-02-20T16:00:42.559Z,8.90
2019-02-20T16:02:47.630Z,13.33
2019-02-20T16:04:52.127Z,11.03
2019-02-20T16:06:56.497Z,10.90
2019-02-20T16:09:00.790Z,13.30
2019-02-20T16:11:04.791Z,12.37
2019-02-20T16:13:09.337Z,11.93
2019-02-20T16:15:14.740Z,7.83
2019-02-20T16:17:19.327Z,10.83
2019-02-20T16:19:23.571Z,11.30
2019-02-20T16:21:29.576Z,10.20
2019-02-20T16:23:33.711Z,12.20
2019-02-20T16:25:38.449Z,8.40
2019-02-20T16:27:47.303Z,7.37
2019-02-20T16:29:48.974Z,7.77
2019-02-20T16:31:53.422Z,5.50
2019-02-20T16:33:57.575Z,5.97
2019-02-20T16:36:02.046Z,8.57
2019-02-20T16:38:06.554Z,5.50
2019-02-20T16:40:12.301Z,5.80
2019-02-20T16:42:16.131Z,6.03
2019-02-20T16:44:20.110Z,5.23
2019-02-20T16:46:24.543Z,5.53
2019-02-20T16:48:28.835Z,6.33
2019-02-20T16:50:32.892Z,5.67
2019-02-20T16:52:37.179Z,6.00
2019-02-20T16:54:42.951Z,5.50
2019-02-20T16:56:47.235Z,3.83
2019-02-20T16:58:51.327Z,4.40
2019-02-20T17:00:55.999Z,5.90
2019-02-20T17:03:00.211Z,5.00
2019-02-20T17:05:05.435Z,5.50
2019-02-20T17:07:09.357Z,3.63
2019-02-20T17:09:13.579Z,4.40
2019-02-20T17:11:19.011Z,3.50
2019-02-20T17:13:23.499Z,4.10
2019-02-20T17:15:28.187Z,4.40
2019-02-20T17:17:32.880Z,4.10
2019-02-20T17:19:37.067Z,4.97
2019-02-20T17:21:41.484Z,3.00
2019-02-20T17:23:46.326Z,4.00
2019-02-20T17:25:52.027Z,4.10
2019-02-20T17:27:55.955Z,3.80
2019-02-20T17:30:00.330Z,2.80
2019-02-20T17:32:04.792Z,3.57
2019-02-20T17:34:09.223Z,4.77
2019-02-20T17:36:13.304Z,3.93
2019-02-20T17:38:18.208Z,4.20
2019-02-20T17:40:23.232Z,4.60
2019-02-20T17:42:27.339Z,3.87
2019-02-20T17:44:31.995Z,4.60
2019-02-20T17:46:36.426Z,5.37
2019-02-20T17:48:41.606Z,2.90
2019-02-20T17:50:46.480Z,4.17
2019-02-20T17:52:51.117Z,4.30
2019-02-20T17:54:55.141Z,4.30
2019-02-20T17:56:59.050Z,2.80
2019-02-20T17:59:04.811Z,3.57
2019-02-20T18:01:15.783Z,3.90
2019-02-20T18:03:20.380Z,5.00
2019-02-20T18:05:25.233Z,4.20
2019-02-20T18:07:29.568Z,3.30
2019-02-20T18:09:35.047Z,4.33
2019-02-20T18:11:39.361Z,3.20
2019-02-20T18:13:43.442Z,3.67
2019-02-20T18:15:47.875Z,4.00
2019-02-20T18:17:52.039Z,3.43
2019-02-20T18:19:56.578Z,3.70
2019-02-20T18:22:01.798Z,3.50
2019-02-20T18:24:05.711Z,3.70
2019-02-20T18:26:10.218Z,6.00
2019-02-20T18:28:23.772Z,3.40
2019-02-20T18:30:20.838Z,4.47
2019-02-20T18:32:24.795Z,4.70
2019-02-20T18:34:29.936Z,4.00
2019-02-20T18:36:34.042Z,4.00
2019-02-20T18:38:38.132Z,4.20
2019-02-20T18:40:41.962Z,4.20
2019-02-20T18:42:45.896Z,2.07
2019-02-20T18:44:50.317Z,4.73
2019-02-20T18:46:56.593Z,5.07
2019-02-20T18:49:01.099Z,4.47
2019-02-20T18:51:05.124Z,2.73
2019-02-20T18:53:09.828Z,3.33
2019-02-20T18:55:14.341Z,4.80
2019-02-20T18:57:18.168Z,3.20
2019-02-20T18:59:22.619Z,3.47
2019-02-20T19:01:26.725Z,3.83
2019-02-20T19:03:31.370Z,4.10
2019-02-20T19:05:35.986Z,3.97
2019-02-20T19:07:40.583Z,3.57
2019-02-20T19:09:47.639Z,4.70
2019-02-20T19:12:29.931Z,3.90
2019-02-20T19:15:06.623Z,4.70
2019-02-20T19:17:47.747Z,4.77
2019-02-20T19:20:05.636Z,3.83
2019-02-20T19:22:54.795Z,4.03
2019-02-20T19:25:41.735Z,3.20
2019-02-20T19:27:57.975Z,3.70
2019-02-20T19:30:27.064Z,3.03
2019-02-20T19:32:55.618Z,4.47
2019-02-20T19:35:25.910Z,5.00
2019-02-20T19:38:05.909Z,4.10
2019-02-20T19:40:46.747Z,4.53
2019-02-20T19:43:12.171Z,4.77
2019-02-20T19:46:19.038Z,3.80
2019-02-20T19:48:57.907Z,5.17
2019-02-20T19:51:22.076Z,4.47
2019-02-20T19:53:42.587Z,5.17
2019-02-20T19:56:30.979Z,4.40
2019-02-20T19:59:14.999Z,4.27
2019-02-20T20:01:54.630Z,5.00
2019-02-20T20:04:26.919Z,3.17
2019-02-20T20:06:52.978Z,5.00
2019-02-20T20:09:19.992Z,3.87
2019-02-20T20:11:49.721Z,4.70
2019-02-20T20:14:48.295Z,3.83
2019-02-20T20:17:37.036Z,3.13
2019-02-20T20:20:18.881Z,5.63
2019-02-20T20:22:58.307Z,4.60
2019-02-20T20:25:30.712Z,4.27
2019-02-20T20:28:10.051Z,5.37
2019-02-20T20:31:13.697Z,3.63
2019-02-20T20:33:43.550Z,4.40
2019-02-20T20:36:16.698Z,3.73
2019-02-20T20:38:54.467Z,5.17
2019-02-20T20:41:30.352Z,4.10
2019-02-20T20:44:05.745Z,5.93
2019-02-20T20:46:38.699Z,5.50
2019-02-20T20:49:06.135Z,4.40
2019-02-20T20:52:09.639Z,4.60
2019-02-20T20:54:54.567Z,4.63
2019-02-20T20:57:48.980Z,5.10
2019-02-20T21:00:30.230Z,3.73
2019-02-20T21:02:44.555Z,5.87
2019-02-20T21:05:08.589Z,4.60
2019-02-20T21:07:41.328Z,5.60
2019-02-20T21:10:21.827Z,4.97
2019-02-20T21:12:53.774Z,4.70
2019-02-20T21:15:23.056Z,5.60
2019-02-20T21:17:46.039Z,5.43
2019-02-20T21:20:11.339Z,4.07
2019-02-20T21:22:39.334Z,5.60
2019-02-20T21:25:21.426Z,4.97
2019-02-20T21:28:02.748Z,4.83
2019-02-20T21:30:27.277Z,4.77
2019-02-20T21:33:10.323Z,3.60
2019-02-20T21:35:49.636Z,6.10
2019-02-20T21:38:41.226Z,4.50
2019-02-20T21:41:07.995Z,4.50
2019-02-20T21:43:46.737Z,7.10
2019-02-20T21:46:31.327Z,7.87
2019-02-20T21:49:16.999Z,7.10
2019-02-20T21:51:39.660Z,5.27
2019-02-20T21:54:12.163Z,7.30
2019-02-20T21:56:45.089Z,4.57
2019-02-20T21:59:26.399Z,6.20
2019-02-20T22:01:55.312Z,7.80
2019-02-20T22:04:16.087Z,6.47
2019-02-20T22:06:53.340Z,8.17
2019-02-20T22:09:38.499Z,4.27
2019-02-20T22:12:03.626Z,6.67
2019-02-20T22:14:29.516Z,5.40
2019-02-20T22:17:03.275Z,4.87
2019-02-20T22:19:57.807Z,4.27
2019-02-20T22:22:25.145Z,5.90
2019-02-20T22:24:55.723Z,5.40
2019-02-20T22:27:30.839Z,6.80
2019-02-20T22:29:52.366Z,6.03
2019-02-20T22:32:35.212Z,7.10
2019-02-20T22:35:14.593Z,8.93
2019-02-20T22:37:41.695Z,8.00
2019-02-20T22:40:28.084Z,6.40
2019-02-20T22:43:12.234Z,7.13
2019-02-20T22:46:10.533Z,10.00
2019-02-20T22:48:59.897Z,6.50
2019-02-20T22:51:27.891Z,7.00
2019-02-20T22:54:06.711Z,5.47
2019-02-20T22:56:26.180Z,6.47
2019-02-20T22:58:52.483Z,6.40
2019-02-20T23:01:22.190Z,6.10
2019-02-20T23:04:03.331Z,8.97
2019-02-20T23:06:57.251Z,4.57
2019-02-20T23:09:18.327Z,7.43
2019-02-20T23:11:45.001Z,6.17
2019-02-20T23:14:30.707Z,6.90
2019-02-20T23:16:39.713Z,6.07
2019-02-20T23:18:44.382Z,5.83
2019-02-20T23:20:52.147Z,7.67
2019-02-20T23:22:59.631Z,5.50
2019-02-20T23:25:04.703Z,6.40
2019-02-20T23:27:09.229Z,8.63
2019-02-20T23:29:14.884Z,6.23
2019-02-20T23:31:18.876Z,7.07
2019-02-20T23:33:23.358Z,7.17
2019-02-20T23:35:28.199Z,6.90
2019-02-20T23:37:32.331Z,7.77
2019-02-20T23:39:36.897Z,8.13
2019-02-20T23:41:40.763Z,6.33
2019-02-20T23:43:44.856Z,7.07
2019-02-20T23:45:49.291Z,7.43
2019-02-20T23:47:53.968Z,6.90
2019-02-20T23:49:58.664Z,9.90
2019-02-20T23:52:02.593Z,7.20
2019-02-20T23:54:07.115Z,7.90
2019-02-20T23:56:12.040Z,8.23
2019-02-20T23:58:15.879Z,8.60
